Time;durP1;ratioP1;P1;durP2;ratioP2;P2;SDS_P1;SDS_P2;PMS_P1;PMS_P2;Temp;Humidity;BMP_temperature;BMP_pressure;BME280_temperature;BME280_humidity;BME280_pressure;Samples;Min_cycle;Max_cycle;Signal;HPM_P1;HPM_P2
2021/09/07 00:00:33;;;;;;;29.42;14.73;;;;;;;;;;5049648;28;20756;-67
2021/09/07 00:02:58;;;;;;;26.40;15.25;;;;;;;;;;5049215;28;20028;-65
2021/09/07 00:05:23;;;;;;;28.60;14.37;;;;;;;;;;5048920;28;20053;-66
2021/09/07 00:07:49;;;;;;;29.55;15.13;;;;;;;;;;5049001;28;20796;-65
2021/09/07 00:10:14;;;;;;;32.33;14.73;;;;;;;;;;5040183;28;20549;-65
2021/09/07 00:12:40;;;;;;;27.63;14.60;;;;;;;;;;5046052;28;20517;-64
2021/09/07 00:15:06;;;;;;;29.40;15.20;;;;;;;;;;5043553;28;20062;-63
2021/09/07 00:17:31;;;;;;;29.50;15.18;;;;;;;;;;5049223;28;20044;-64
2021/09/07 00:19:57;;;;;;;30.65;16.98;;;;;;;;;;5048742;28;20462;-63
2021/09/07 00:22:22;;;;;;;34.85;16.08;;;;;;;;;;5047616;28;20017;-64
2021/09/07 00:24:47;;;;;;;28.27;15.77;;;;;;;;;;5049200;28;20044;-63
2021/09/07 00:27:12;;;;;;;33.13;16.85;;;;;;;;;;5048719;28;20264;-63
2021/09/07 00:29:37;;;;;;;31.23;17.17;;;;;;;;;;5048222;28;20041;-63
2021/09/07 00:32:03;;;;;;;32.67;17.17;;;;;;;;;;5049188;28;20031;-65
2021/09/07 00:34:28;;;;;;;28.15;16.65;;;;;;;;;;5046401;28;20263;-66
2021/09/07 00:36:53;;;;;;;36.73;17.03;;;;;;;;;;5049553;28;20462;-65
2021/09/07 00:39:18;;;;;;;27.33;14.97;;;;;;;;;;5049950;28;20272;-63
2021/09/07 00:41:44;;;;;;;33.55;16.40;;;;;;;;;;5037864;28;20295;-64
2021/09/07 00:44:16;;;;;;;27.98;16.02;;;;;;;;;;5048509;28;20104;-64
2021/09/07 00:46:42;;;;;;;28.73;14.90;;;;;;;;;;5048842;28;20036;-64
2021/09/07 00:49:07;;;;;;;27.58;15.48;;;;;;;;;;5048249;28;20025;-63
2021/09/07 00:51:34;;;;;;;27.97;14.53;;;;;;;;;;5048981;28;20048;-63
2021/09/07 00:54:00;;;;;;;34.53;14.98;;;;;;;;;;5048371;28;20270;-63
2021/09/07 00:56:25;;;;;;;33.85;17.02;;;;;;;;;;5047331;28;20025;-63
2021/09/07 00:58:52;;;;;;;31.50;15.60;;;;;;;;;;5048967;28;20111;-62
2021/09/07 01:01:17;;;;;;;33.28;15.55;;;;;;;;;;5049314;28;20435;-65
2021/09/07 01:03:42;;;;;;;26.07;15.40;;;;;;;;;;5049473;28;20036;-63
2021/09/07 01:06:07;;;;;;;31.30;15.93;;;;;;;;;;5050108;28;20275;-63
2021/09/07 01:08:32;;;;;;;27.95;15.25;;;;;;;;;;5052649;28;20731;-63
2021/09/07 01:10:57;;;;;;;27.42;15.13;;;;;;;;;;5050917;28;20029;-62
2021/09/07 01:13:23;;;;;;;33.03;16.10;;;;;;;;;;5052532;28;20013;-63
2021/09/07 01:15:48;;;;;;;28.38;14.93;;;;;;;;;;5052144;28;20267;-63
2021/09/07 01:18:14;;;;;;;33.13;14.32;;;;;;;;;;5052784;28;20358;-63
2021/09/07 01:20:39;;;;;;;30.35;14.48;;;;;;;;;;5052235;28;20025;-63
2021/09/07 01:23:04;;;;;;;26.50;15.37;;;;;;;;;;5051502;28;20024;-63
2021/09/07 01:25:29;;;;;;;31.17;14.97;;;;;;;;;;5051635;28;20362;-62
2021/09/07 01:27:54;;;;;;;31.53;15.20;;;;;;;;;;5052646;28;20620;-63
2021/09/07 01:30:20;;;;;;;27.50;14.63;;;;;;;;;;5052341;28;20314;-63
2021/09/07 01:32:45;;;;;;;25.35;14.40;;;;;;;;;;5052725;28;20057;-65
2021/09/07 01:35:10;;;;;;;25.88;15.20;;;;;;;;;;5052742;28;20021;-63
2021/09/07 01:37:39;;;;;;;29.40;14.45;;;;;;;;;;5052814;28;20028;-63
2021/09/07 01:40:05;;;;;;;28.13;14.30;;;;;;;;;;5051747;28;20049;-63
2021/09/07 01:42:30;;;;;;;26.58;14.13;;;;;;;;;;5051384;28;20106;-62
2021/09/07 01:44:55;;;;;;;27.92;14.55;;;;;;;;;;5051251;28;20025;-63
2021/09/07 01:47:20;;;;;;;31.45;14.77;;;;;;;;;;5052729;28;20032;-62
2021/09/07 01:49:45;;;;;;;28.15;14.18;;;;;;;;;;5051696;28;20017;-63
2021/09/07 01:52:12;;;;;;;25.47;14.37;;;;;;;;;;5051367;28;20017;-65
2021/09/07 01:54:41;;;;;;;27.55;15.77;;;;;;;;;;5051965;28;20338;-63
2021/09/07 01:57:06;;;;;;;28.13;15.27;;;;;;;;;;5052943;28;20031;-63
2021/09/07 01:59:33;;;;;;;33.75;15.05;;;;;;;;;;5052579;28;20279;-63
2021/09/07 02:01:58;;;;;;;33.53;15.02;;;;;;;;;;5051998;28;20021;-62
2021/09/07 02:04:23;;;;;;;27.55;14.73;;;;;;;;;;5051838;28;20059;-65
2021/09/07 02:06:48;;;;;;;27.77;14.63;;;;;;;;;;5052214;28;20025;-63
2021/09/07 02:09:13;;;;;;;28.50;14.13;;;;;;;;;;5052773;28;20858;-66
2021/09/07 02:11:39;;;;;;;27.25;15.43;;;;;;;;;;5052300;28;20325;-63
2021/09/07 02:14:04;;;;;;;25.00;15.43;;;;;;;;;;5051686;28;20493;-64
2021/09/07 02:16:29;;;;;;;30.40;14.63;;;;;;;;;;5051884;28;20105;-63
2021/09/07 02:18:54;;;;;;;28.02;14.43;;;;;;;;;;5051342;28;20322;-65
2021/09/07 02:21:19;;;;;;;27.05;13.85;;;;;;;;;;5052225;28;20428;-63
2021/09/07 02:23:45;;;;;;;30.07;15.43;;;;;;;;;;5052254;28;20389;-65
2021/09/07 02:26:10;;;;;;;30.48;15.52;;;;;;;;;;5051148;28;20295;-66
2021/09/07 02:28:35;;;;;;;29.03;14.40;;;;;;;;;;5051096;28;20465;-65
2021/09/07 02:31:00;;;;;;;28.52;14.52;;;;;;;;;;5050373;28;20270;-63
2021/09/07 02:33:25;;;;;;;34.10;14.60;;;;;;;;;;5050464;28;20025;-64
2021/09/07 02:35:51;;;;;;;25.35;14.68;;;;;;;;;;5049695;28;20036;-62
2021/09/07 02:38:16;;;;;;;33.43;14.10;;;;;;;;;;5051650;28;20032;-64
2021/09/07 02:40:41;;;;;;;27.83;14.30;;;;;;;;;;5051775;28;20268;-63
2021/09/07 02:43:06;;;;;;;27.63;14.77;;;;;;;;;;5050980;28;20469;-65
2021/09/07 02:45:31;;;;;;;29.05;14.82;;;;;;;;;;5049003;28;20310;-62
2021/09/07 02:47:57;;;;;;;27.33;13.93;;;;;;;;;;5051726;28;20037;-65
2021/09/07 02:50:22;;;;;;;27.85;14.30;;;;;;;;;;5051777;28;20477;-63
2021/09/07 02:52:48;;;;;;;26.42;14.98;;;;;;;;;;5051499;28;20020;-63
2021/09/07 02:55:13;;;;;;;28.20;14.15;;;;;;;;;;5050622;28;20099;-64
2021/09/07 02:57:38;;;;;;;25.17;14.60;;;;;;;;;;5049949;28;20476;-63
2021/09/07 03:00:05;;;;;;;26.88;14.43;;;;;;;;;;5048900;28;20272;-62
2021/09/07 03:02:30;;;;;;;24.58;14.40;;;;;;;;;;5045785;28;20097;-64
2021/09/07 03:04:55;;;;;;;25.43;14.90;;;;;;;;;;5048425;28;20031;-62
2021/09/07 03:07:20;;;;;;;29.27;13.97;;;;;;;;;;5051020;28;20496;-65
2021/09/07 03:09:45;;;;;;;25.60;14.88;;;;;;;;;;5049910;28;20340;-64
2021/09/07 03:12:11;;;;;;;26.67;15.60;;;;;;;;;;5051357;28;20017;-65
2021/09/07 03:14:36;;;;;;;25.80;14.80;;;;;;;;;;5051607;28;20036;-63
2021/09/07 03:17:02;;;;;;;29.67;14.18;;;;;;;;;;5050979;28;20086;-65
2021/09/07 03:19:27;;;;;;;28.50;14.57;;;;;;;;;;5050965;28;20024;-63
2021/09/07 03:21:52;;;;;;;24.08;14.68;;;;;;;;;;5049407;28;20056;-64
2021/09/07 03:24:17;;;;;;;28.58;14.43;;;;;;;;;;5044596;28;20030;-62
2021/09/07 03:26:43;;;;;;;29.20;14.55;;;;;;;;;;5050448;28;20025;-62
2021/09/07 03:29:08;;;;;;;25.58;14.75;;;;;;;;;;5050448;28;20060;-62
2021/09/07 03:31:33;;;;;;;36.55;15.50;;;;;;;;;;5050576;28;20477;-62
2021/09/07 03:33:58;;;;;;;24.83;14.88;;;;;;;;;;5049763;28;20036;-63
2021/09/07 03:36:23;;;;;;;28.57;14.43;;;;;;;;;;5049697;28;20013;-65
2021/09/07 03:38:49;;;;;;;24.27;14.77;;;;;;;;;;5049318;28;20291;-66
2021/09/07 03:41:14;;;;;;;25.85;14.00;;;;;;;;;;5049447;28;20267;-65
2021/09/07 03:43:39;;;;;;;33.28;16.27;;;;;;;;;;5049848;28;20051;-66
2021/09/07 03:46:04;;;;;;;28.85;14.82;;;;;;;;;;5049461;28;20096;-65
2021/09/07 03:48:30;;;;;;;28.40;15.60;;;;;;;;;;5050867;28;20036;-67
2021/09/07 03:50:55;;;;;;;35.67;15.27;;;;;;;;;;5049013;28;20568;-66
2021/09/07 03:53:20;;;;;;;25.67;14.27;;;;;;;;;;5048469;28;20021;-67
2021/09/07 03:55:45;;;;;;;26.83;14.85;;;;;;;;;;5050131;28;20025;-65
2021/09/07 03:58:10;;;;;;;25.73;14.38;;;;;;;;;;5050868;28;20359;-67
2021/09/07 04:00:36;;;;;;;27.40;14.60;;;;;;;;;;5049839;28;20429;-65
2021/09/07 04:03:01;;;;;;;34.55;14.15;;;;;;;;;;5049652;28;20307;-66
2021/09/07 04:05:26;;;;;;;28.70;15.13;;;;;;;;;;5049489;28;20056;-65
2021/09/07 04:07:52;;;;;;;31.38;14.80;;;;;;;;;;5048751;28;20263;-66
2021/09/07 04:10:17;;;;;;;27.17;15.27;;;;;;;;;;5048645;28;20096;-65
2021/09/07 04:12:42;;;;;;;34.77;16.70;;;;;;;;;;5049058;28;20032;-66
2021/09/07 04:15:07;;;;;;;26.92;15.05;;;;;;;;;;5049528;28;20616;-65
2021/09/07 04:17:33;;;;;;;33.38;15.05;;;;;;;;;;5048896;28;20489;-65
2021/09/07 04:19:58;;;;;;;41.13;15.95;;;;;;;;;;5049083;28;20525;-66
2021/09/07 04:22:23;;;;;;;29.67;16.13;;;;;;;;;;5048753;28;20029;-65
2021/09/07 04:24:48;;;;;;;25.15;15.15;;;;;;;;;;5049555;28;20278;-66
2021/09/07 04:27:13;;;;;;;30.85;15.35;;;;;;;;;;5049248;28;20035;-66
2021/09/07 04:29:39;;;;;;;29.17;14.80;;;;;;;;;;5048307;28;20025;-63
2021/09/07 04:32:04;;;;;;;26.80;14.85;;;;;;;;;;5048839;28;20357;-65
2021/09/07 04:34:29;;;;;;;45.60;14.48;;;;;;;;;;5048919;28;20025;-67
2021/09/07 04:36:54;;;;;;;36.50;14.20;;;;;;;;;;5048652;28;20047;-66
2021/09/07 04:39:20;;;;;;;25.83;14.87;;;;;;;;;;5048139;28;20321;-65
2021/09/07 04:41:45;;;;;;;27.13;15.20;;;;;;;;;;5048590;28;20354;-66
2021/09/07 04:44:10;;;;;;;25.85;14.13;;;;;;;;;;5049041;28;20759;-65
2021/09/07 04:46:35;;;;;;;28.67;15.10;;;;;;;;;;5049379;28;20021;-65
2021/09/07 04:49:01;;;;;;;30.15;13.40;;;;;;;;;;5075775;23;20065;-68
2021/09/07 04:51:26;;;;;;;29.25;14.23;;;;;;;;;;5069145;28;20029;-68
2021/09/07 04:53:51;;;;;;;26.13;13.77;;;;;;;;;;5067899;28;20095;-68
2021/09/07 04:56:18;;;;;;;30.38;15.10;;;;;;;;;;5069142;28;20024;-68
2021/09/07 04:58:43;;;;;;;32.05;13.98;;;;;;;;;;5067949;28;20542;-67
2021/09/07 05:01:08;;;;;;;27.42;14.02;;;;;;;;;;5068772;28;20100;-68
2021/09/07 05:03:34;;;;;;;27.25;14.93;;;;;;;;;;5068709;28;20024;-68
2021/09/07 05:05:59;;;;;;;24.42;13.77;;;;;;;;;;5069426;28;20221;-68
2021/09/07 05:08:24;;;;;;;23.73;14.20;;;;;;;;;;5069373;28;20020;-67
2021/09/07 05:10:49;;;;;;;23.80;13.90;;;;;;;;;;5068238;28;20283;-68
2021/09/07 05:13:14;;;;;;;27.35;15.52;;;;;;;;;;5068053;28;20028;-68
2021/09/07 05:15:40;;;;;;;28.00;14.00;;;;;;;;;;5068852;28;20127;-68
2021/09/07 05:18:05;;;;;;;31.20;14.48;;;;;;;;;;5069797;28;20758;-68
2021/09/07 05:20:30;;;;;;;23.63;13.80;;;;;;;;;;5068453;28;20036;-68
2021/09/07 05:22:55;;;;;;;30.70;13.67;;;;;;;;;;5068786;28;20028;-68
2021/09/07 05:25:20;;;;;;;25.63;14.35;;;;;;;;;;5069262;28;20318;-68
2021/09/07 05:27:46;;;;;;;26.97;14.63;;;;;;;;;;5064524;28;20064;-68
2021/09/07 05:30:11;;;;;;;28.98;14.32;;;;;;;;;;5069056;28;20278;-68
2021/09/07 05:32:37;;;;;;;26.20;15.07;;;;;;;;;;5069154;28;20012;-68
2021/09/07 05:35:02;;;;;;;26.25;15.25;;;;;;;;;;5068998;28;20020;-68
2021/09/07 05:37:27;;;;;;;27.38;14.02;;;;;;;;;;5067542;28;20013;-68
2021/09/07 05:39:52;;;;;;;26.53;13.57;;;;;;;;;;5068779;28;20024;-68
2021/09/07 05:42:18;;;;;;;29.88;15.00;;;;;;;;;;5069486;28;20858;-68
2021/09/07 05:44:43;;;;;;;27.05;14.30;;;;;;;;;;5068392;28;20440;-68
2021/09/07 05:47:08;;;;;;;33.78;13.85;;;;;;;;;;5066281;28;20029;-68
2021/09/07 05:49:34;;;;;;;28.80;14.60;;;;;;;;;;5055308;28;20036;-69
2021/09/07 05:51:59;;;;;;;25.48;13.48;;;;;;;;;;5053984;28;20755;-69
2021/09/07 05:54:24;;;;;;;28.83;14.43;;;;;;;;;;5067868;28;20286;-69
2021/09/07 05:56:49;;;;;;;23.45;13.40;;;;;;;;;;5062054;28;20021;-69
2021/09/07 05:59:16;;;;;;;28.60;14.27;;;;;;;;;;5063487;28;20067;-69
2021/09/07 06:01:41;;;;;;;37.20;15.88;;;;;;;;;;5068212;28;20025;-69
2021/09/07 06:04:06;;;;;;;34.03;15.53;;;;;;;;;;5069397;28;20446;-69
2021/09/07 06:06:32;;;;;;;31.17;14.87;;;;;;;;;;5062872;28;20270;-69
2021/09/07 06:08:57;;;;;;;27.85;15.70;;;;;;;;;;5064833;28;20286;-69
2021/09/07 06:11:23;;;;;;;29.23;16.33;;;;;;;;;;5061049;28;20017;-69
2021/09/07 06:13:48;;;;;;;29.33;15.43;;;;;;;;;;5069120;28;20021;-69
2021/09/07 06:16:13;;;;;;;26.60;14.23;;;;;;;;;;5061966;28;20029;-69
2021/09/07 06:18:38;;;;;;;27.87;14.70;;;;;;;;;;5069865;28;20267;-69
2021/09/07 06:21:03;;;;;;;33.15;15.57;;;;;;;;;;5062275;28;20771;-69
2021/09/07 06:23:28;;;;;;;29.92;14.00;;;;;;;;;;5066277;28;20044;-69
2021/09/07 06:25:57;;;;;;;32.03;14.47;;;;;;;;;;5067109;28;20044;-69
2021/09/07 06:28:23;;;;;;;30.73;15.50;;;;;;;;;;5065799;28;20304;-69
2021/09/07 06:30:48;;;;;;;28.77;15.63;;;;;;;;;;5072597;28;20032;-69
2021/09/07 06:33:13;;;;;;;27.87;14.50;;;;;;;;;;5071881;28;20286;-69
2021/09/07 06:35:38;;;;;;;30.43;14.73;;;;;;;;;;5072179;28;20305;-69
2021/09/07 06:38:03;;;;;;;29.15;14.70;;;;;;;;;;5072056;28;20742;-69
2021/09/07 06:40:29;;;;;;;28.73;14.60;;;;;;;;;;5071374;28;20083;-69
2021/09/07 06:42:55;;;;;;;28.13;14.50;;;;;;;;;;5071276;28;20277;-69
2021/09/07 06:45:20;;;;;;;31.67;13.80;;;;;;;;;;5071044;28;20066;-69
2021/09/07 06:47:46;;;;;;;32.85;15.02;;;;;;;;;;5070696;28;20032;-69
2021/09/07 06:50:11;;;;;;;27.77;14.23;;;;;;;;;;5071921;28;20055;-69
2021/09/07 06:52:36;;;;;;;25.83;15.07;;;;;;;;;;5071144;28;20262;-69
2021/09/07 06:55:02;;;;;;;29.42;15.27;;;;;;;;;;5071460;28;20049;-69
2021/09/07 06:57:27;;;;;;;26.17;14.27;;;;;;;;;;5071198;28;20082;-69
2021/09/07 06:59:53;;;;;;;30.23;14.30;;;;;;;;;;5071156;28;20648;-69
2021/09/07 07:02:19;;;;;;;33.78;13.48;;;;;;;;;;5068076;28;20021;-69
2021/09/07 07:04:44;;;;;;;37.20;13.95;;;;;;;;;;5060204;28;20408;-69
2021/09/07 07:07:09;;;;;;;24.63;14.25;;;;;;;;;;5065474;28;20028;-69
2021/09/07 07:09:34;;;;;;;25.63;14.27;;;;;;;;;;5068175;28;20030;-69
2021/09/07 07:11:59;;;;;;;28.13;14.50;;;;;;;;;;5070112;28;20352;-69
2021/09/07 07:14:25;;;;;;;27.23;15.40;;;;;;;;;;5071374;28;20270;-69
2021/09/07 07:16:50;;;;;;;29.67;14.27;;;;;;;;;;5071277;28;20309;-69
2021/09/07 07:19:15;;;;;;;29.02;14.77;;;;;;;;;;5070942;28;20023;-69
2021/09/07 07:21:40;;;;;;;26.42;15.50;;;;;;;;;;5069471;28;20024;-69
2021/09/07 07:24:06;;;;;;;28.40;17.08;;;;;;;;;;5068725;28;20097;-69
2021/09/07 07:26:31;;;;;;;26.90;14.20;;;;;;;;;;5070475;28;20036;-70
2021/09/07 07:28:57;;;;;;;29.70;17.00;;;;;;;;;;5071263;28;20263;-69
2021/09/07 07:31:22;;;;;;;30.25;15.00;;;;;;;;;;5070343;28;20096;-69
2021/09/07 07:33:47;;;;;;;25.20;15.27;;;;;;;;;;5070997;28;20009;-69
2021/09/07 07:36:12;;;;;;;42.83;16.47;;;;;;;;;;5071270;28;20361;-69
2021/09/07 07:38:37;;;;;;;31.00;16.27;;;;;;;;;;5070377;28;20300;-69
2021/09/07 07:41:03;;;;;;;29.40;16.23;;;;;;;;;;5070629;28;20092;-69
2021/09/07 07:43:29;;;;;;;28.27;15.63;;;;;;;;;;5070205;28;20639;-69
2021/09/07 07:45:54;;;;;;;37.95;16.27;;;;;;;;;;5070011;28;20017;-69
2021/09/07 07:48:20;;;;;;;31.70;15.60;;;;;;;;;;5070093;28;20070;-69
2021/09/07 07:50:45;;;;;;;28.55;15.35;;;;;;;;;;5070252;28;20353;-69
2021/09/07 07:53:10;;;;;;;35.50;15.57;;;;;;;;;;5069308;28;20492;-70
2021/09/07 07:55:35;;;;;;;27.43;16.73;;;;;;;;;;5069810;28;20039;-69
2021/09/07 07:58:00;;;;;;;35.63;16.97;;;;;;;;;;5070487;28;20314;-69
2021/09/07 08:00:26;;;;;;;30.20;16.63;;;;;;;;;;5070295;28;20755;-69
2021/09/07 08:02:51;;;;;;;28.50;16.92;;;;;;;;;;5070225;28;20263;-69
2021/09/07 08:05:16;;;;;;;28.80;17.23;;;;;;;;;;5070007;28;20025;-70
2021/09/07 08:07:41;;;;;;;31.67;17.80;;;;;;;;;;5070773;28;20271;-70
2021/09/07 08:10:07;;;;;;;30.60;16.70;;;;;;;;;;5068969;28;20020;-70
2021/09/07 08:12:32;;;;;;;30.67;18.10;;;;;;;;;;5069943;28;20025;-70
2021/09/07 08:14:57;;;;;;;29.17;15.90;;;;;;;;;;5059540;28;20044;-70
2021/09/07 08:17:22;;;;;;;30.10;16.85;;;;;;;;;;5069851;28;20518;-70
2021/09/07 08:19:48;;;;;;;29.58;15.77;;;;;;;;;;5070060;28;20472;-70
2021/09/07 08:22:14;;;;;;;26.47;15.10;;;;;;;;;;5070072;28;20028;-70
2021/09/07 08:24:39;;;;;;;26.70;15.68;;;;;;;;;;5069806;28;20773;-70
2021/09/07 08:27:05;;;;;;;29.70;15.40;;;;;;;;;;5070057;28;20028;-70
2021/09/07 08:29:30;;;;;;;32.60;15.77;;;;;;;;;;5069646;28;20036;-70
2021/09/07 08:31:55;;;;;;;30.33;15.43;;;;;;;;;;5070023;28;20024;-70
2021/09/07 08:34:20;;;;;;;26.37;15.90;;;;;;;;;;5070293;28;20048;-70
2021/09/07 08:36:45;;;;;;;29.17;15.67;;;;;;;;;;5068050;28;20335;-70
2021/09/07 08:39:11;;;;;;;26.93;15.77;;;;;;;;;;5059164;28;20282;-70
2021/09/07 08:41:36;;;;;;;22.70;13.27;;;;;;;;;;5061785;28;20063;-70
2021/09/07 08:44:02;;;;;;;26.03;14.80;;;;;;;;;;5064187;28;20357;-70
2021/09/07 08:46:27;;;;;;;28.67;14.85;;;;;;;;;;5069517;28;20689;-70
2021/09/07 08:48:52;;;;;;;29.83;16.55;;;;;;;;;;5069644;28;20032;-70
2021/09/07 08:51:18;;;;;;;28.67;15.40;;;;;;;;;;5069439;28;20020;-70
2021/09/07 08:53:43;;;;;;;30.95;15.90;;;;;;;;;;5069642;28;20123;-70
2021/09/07 08:56:09;;;;;;;27.17;14.57;;;;;;;;;;5068855;28;20108;-69
2021/09/07 08:58:34;;;;;;;24.08;14.23;;;;;;;;;;5068975;28;20021;-69
2021/09/07 09:01:08;;;;;;;30.83;15.40;;;;;;;;;;5070075;28;20059;-69
2021/09/07 09:03:33;;;;;;;26.65;14.95;;;;;;;;;;5069892;28;20142;-69
2021/09/07 09:05:58;;;;;;;25.17;15.53;;;;;;;;;;5069956;28;20099;-69
2021/09/07 09:08:24;;;;;;;27.33;14.87;;;;;;;;;;5069612;28;20021;-69
2021/09/07 09:11:01;;;;;;;28.27;16.58;;;;;;;;;;5068741;28;20294;-70
2021/09/07 09:13:39;;;;;;;30.25;15.88;;;;;;;;;;5068683;28;20020;-69
2021/09/07 09:16:05;;;;;;;39.38;15.82;;;;;;;;;;5069528;28;20040;-69
2021/09/07 09:18:31;;;;;;;24.58;15.50;;;;;;;;;;5069788;28;20020;-70
2021/09/07 09:20:56;;;;;;;29.42;13.93;;;;;;;;;;5069603;28;20079;-70
2021/09/07 09:23:21;;;;;;;23.30;14.47;;;;;;;;;;5069106;28;20641;-70
2021/09/07 09:25:46;;;;;;;25.40;15.77;;;;;;;;;;5068118;28;20111;-70
2021/09/07 09:28:11;;;;;;;22.60;13.50;;;;;;;;;;5070873;28;20670;-70
2021/09/07 09:30:38;;;;;;;28.10;15.88;;;;;;;;;;5073098;28;20325;-70
2021/09/07 09:33:05;;;;;;;36.55;16.80;;;;;;;;;;5071485;28;20464;-70
2021/09/07 09:35:30;;;;;;;25.23;15.10;;;;;;;;;;5072986;28;20449;-70
2021/09/07 09:37:56;;;;;;;25.52;15.45;;;;;;;;;;5072659;28;20048;-70
2021/09/07 09:40:21;;;;;;;25.27;14.55;;;;;;;;;;5073026;28;20468;-70
2021/09/07 09:42:50;;;;;;;27.52;15.40;;;;;;;;;;5071922;28;20039;-70
2021/09/07 09:45:15;;;;;;;23.35;13.90;;;;;;;;;;5072854;28;20024;-70
2021/09/07 09:47:43;;;;;;;24.85;15.20;;;;;;;;;;5072794;28;20496;-70
2021/09/07 09:50:09;;;;;;;29.13;16.17;;;;;;;;;;5071908;28;20020;-70
2021/09/07 09:52:36;;;;;;;29.15;14.73;;;;;;;;;;5072729;28;20377;-69
2021/09/07 09:55:01;;;;;;;25.90;15.25;;;;;;;;;;5072496;28;20021;-69
2021/09/07 09:57:27;;;;;;;27.20;14.23;;;;;;;;;;5072268;28;20028;-69
2021/09/07 09:59:54;;;;;;;24.63;15.10;;;;;;;;;;5071940;28;20481;-69
2021/09/07 10:02:20;;;;;;;28.63;13.88;;;;;;;;;;5072258;28;20043;-69
2021/09/07 10:04:45;;;;;;;20.73;13.38;;;;;;;;;;5070700;28;20477;-69
2021/09/07 10:07:10;;;;;;;25.63;15.07;;;;;;;;;;5072931;28;20028;-69
2021/09/07 10:09:37;;;;;;;26.77;14.52;;;;;;;;;;5072604;28;20024;-69
2021/09/07 10:12:06;;;;;;;29.17;15.02;;;;;;;;;;5071984;28;20492;-69
2021/09/07 10:14:34;;;;;;;22.58;14.85;;;;;;;;;;5071132;28;20217;-69
2021/09/07 10:17:16;;;;;;;22.50;13.98;;;;;;;;;;5072041;28;20017;-69
2021/09/07 10:19:46;;;;;;;29.63;15.15;;;;;;;;;;5052733;28;20079;-69
2021/09/07 10:25:35;;;;;;;23.42;14.05;;;;;;;;;;5067140;28;20046;-70
2021/09/07 10:28:04;;;;;;;23.15;14.77;;;;;;;;;;5059965;28;20032;-69
2021/09/07 10:30:48;;;;;;;22.17;14.20;;;;;;;;;;5071711;28;20032;-69
2021/09/07 10:33:33;;;;;;;24.23;13.43;;;;;;;;;;5072146;28;20008;-69
2021/09/07 10:36:07;;;;;;;22.65;13.57;;;;;;;;;;5062213;28;20020;-69
2021/09/07 10:38:37;;;;;;;25.90;14.18;;;;;;;;;;5070565;28;20028;-69
2021/09/07 10:41:02;;;;;;;26.92;14.70;;;;;;;;;;5071083;28;20023;-70
2021/09/07 10:43:46;;;;;;;30.27;14.75;;;;;;;;;;5071124;28;20032;-69
2021/09/07 10:46:11;;;;;;;18.20;10.48;;;;;;;;;;5071917;28;20024;-68
2021/09/07 10:48:36;;;;;;;20.67;11.83;;;;;;;;;;5071385;28;20017;-69
2021/09/07 10:51:05;;;;;;;22.03;12.00;;;;;;;;;;5072165;28;20396;-70
2021/09/07 10:53:30;;;;;;;19.52;11.18;;;;;;;;;;5071360;28;20055;-69
2021/09/07 10:56:14;;;;;;;22.33;12.38;;;;;;;;;;5071841;28;20055;-71
2021/09/07 10:58:39;;;;;;;19.58;12.52;;;;;;;;;;5068086;28;20046;-70
2021/09/07 11:01:24;;;;;;;21.77;11.57;;;;;;;;;;5071750;28;20107;-69
2021/09/07 11:04:09;;;;;;;26.63;12.55;;;;;;;;;;5071705;28;20025;-69
2021/09/07 11:06:38;;;;;;;19.33;12.02;;;;;;;;;;5069942;28;20043;-69
2021/09/07 11:09:03;;;;;;;22.95;13.43;;;;;;;;;;5071228;28;20021;-70
2021/09/07 11:11:28;;;;;;;22.00;12.47;;;;;;;;;;5071186;28;20012;-70
2021/09/07 11:14:06;;;;;;;21.00;12.95;;;;;;;;;;5070973;28;20136;-69
2021/09/07 11:16:31;;;;;;;21.38;11.55;;;;;;;;;;5070989;28;20024;-69
2021/09/07 11:19:01;;;;;;;23.10;13.70;;;;;;;;;;5070659;28;20016;-69
2021/09/07 11:21:26;;;;;;;20.85;11.68;;;;;;;;;;5070875;28;20046;-70
2021/09/07 11:23:51;;;;;;;21.63;12.53;;;;;;;;;;5070715;28;20024;-69
2021/09/07 11:26:17;;;;;;;24.55;12.77;;;;;;;;;;5067547;28;20297;-70
2021/09/07 11:28:46;;;;;;;19.80;12.73;;;;;;;;;;5070766;28;20024;-69
2021/09/07 11:31:11;;;;;;;22.23;10.90;;;;;;;;;;5071119;28;20028;-70
2021/09/07 11:33:37;;;;;;;19.75;11.32;;;;;;;;;;5070583;28;20065;-69
2021/09/07 11:36:10;;;;;;;16.85;10.27;;;;;;;;;;5071237;28;20050;-69
2021/09/07 11:38:40;;;;;;;21.48;11.00;;;;;;;;;;5070705;28;20020;-69
2021/09/07 11:41:16;;;;;;;26.20;11.85;;;;;;;;;;5071279;28;20021;-70
2021/09/07 11:43:42;;;;;;;19.27;11.20;;;;;;;;;;5069318;28;20027;-70
2021/09/07 11:46:08;;;;;;;16.38;10.55;;;;;;;;;;5065301;28;20023;-70
2021/09/07 11:48:33;;;;;;;21.10;10.90;;;;;;;;;;5066787;28;20029;-70
2021/09/07 11:50:59;;;;;;;18.60;11.52;;;;;;;;;;5069570;28;20465;-70
2021/09/07 11:53:24;;;;;;;21.13;12.85;;;;;;;;;;5070211;28;20042;-71
2021/09/07 11:55:52;;;;;;;20.67;11.32;;;;;;;;;;5070536;28;20021;-69
2021/09/07 11:58:22;;;;;;;19.92;11.18;;;;;;;;;;5070232;28;20477;-70
2021/09/07 12:00:57;;;;;;;19.40;10.05;;;;;;;;;;5066324;28;20020;-69
2021/09/07 12:03:22;;;;;;;20.77;10.98;;;;;;;;;;5064566;28;20036;-70
2021/09/07 12:05:57;;;;;;;19.00;11.03;;;;;;;;;;5060385;28;20385;-70
2021/09/07 12:08:37;;;;;;;20.35;10.43;;;;;;;;;;5064356;28;20119;-69
2021/09/07 12:11:03;;;;;;;19.20;11.55;;;;;;;;;;5065949;28;20024;-70
2021/09/07 12:13:28;;;;;;;20.95;10.48;;;;;;;;;;5069738;28;20017;-70
2021/09/07 12:15:54;;;;;;;16.27;10.17;;;;;;;;;;5070541;28;20099;-70
2021/09/07 12:18:25;;;;;;;22.33;10.03;;;;;;;;;;5070590;28;20253;-70
2021/09/07 12:20:50;;;;;;;19.00;10.30;;;;;;;;;;5062781;28;20305;-70
2021/09/07 12:23:44;;;;;;;13.63;9.63;;;;;;;;;;5069913;28;20452;-70
2021/09/07 12:26:10;;;;;;;20.90;11.13;;;;;;;;;;5064715;28;20354;-70
2021/09/07 12:28:36;;;;;;;14.55;10.43;;;;;;;;;;5069880;28;20103;-69
2021/09/07 12:31:20;;;;;;;15.55;9.50;;;;;;;;;;5069754;28;20451;-69
2021/09/07 12:33:47;;;;;;;23.35;9.18;;;;;;;;;;5067609;28;20023;-70
2021/09/07 12:36:13;;;;;;;15.07;9.02;;;;;;;;;;5064141;28;20044;-70
2021/09/07 12:38:39;;;;;;;12.05;8.27;;;;;;;;;;5069132;28;20025;-70
2021/09/07 12:41:09;;;;;;;13.02;7.50;;;;;;;;;;5070041;28;20074;-70
2021/09/07 12:43:35;;;;;;;12.68;7.82;;;;;;;;;;5050054;28;20405;-69
2021/09/07 12:46:02;;;;;;;18.95;9.20;;;;;;;;;;5057377;28;20389;-70
2021/09/07 12:48:27;;;;;;;13.45;8.75;;;;;;;;;;5060595;28;20025;-70
2021/09/07 12:50:53;;;;;;;14.43;8.77;;;;;;;;;;5057138;28;20024;-69
2021/09/07 12:53:23;;;;;;;16.42;10.68;;;;;;;;;;5060641;28;20374;-69
2021/09/07 12:55:48;;;;;;;16.40;9.75;;;;;;;;;;5062348;28;20024;-69
2021/09/07 12:58:14;;;;;;;15.95;8.88;;;;;;;;;;5069425;28;20043;-69
2021/09/07 13:00:40;;;;;;;12.82;8.50;;;;;;;;;;5070251;28;20086;-69
2021/09/07 13:03:06;;;;;;;15.73;8.30;;;;;;;;;;5072954;28;20405;-70
2021/09/07 13:05:31;;;;;;;13.15;9.18;;;;;;;;;;5073240;28;20021;-70
2021/09/07 13:07:56;;;;;;;12.20;7.65;;;;;;;;;;5056390;28;20048;-70
2021/09/07 13:10:22;;;;;;;18.67;8.43;;;;;;;;;;5061943;28;20024;-70
2021/09/07 13:12:47;;;;;;;11.87;6.60;;;;;;;;;;5073237;28;20166;-70
2021/09/07 13:15:12;;;;;;;12.73;6.40;;;;;;;;;;5073559;28;20308;-70
2021/09/07 13:17:37;;;;;;;11.47;7.80;;;;;;;;;;5073621;28;20768;-70
2021/09/07 13:20:03;;;;;;;11.50;6.70;;;;;;;;;;5073649;28;20275;-70
2021/09/07 13:22:28;;;;;;;12.18;8.30;;;;;;;;;;5072511;28;20270;-70
2021/09/07 13:24:54;;;;;;;19.67;6.97;;;;;;;;;;5073218;28;20020;-70
2021/09/07 13:27:19;;;;;;;11.00;6.93;;;;;;;;;;5072073;28;20025;-69
2021/09/07 13:29:44;;;;;;;12.23;7.07;;;;;;;;;;5072293;28;20024;-71
2021/09/07 13:32:09;;;;;;;14.43;7.30;;;;;;;;;;5069250;28;20293;-71
2021/09/07 13:34:34;;;;;;;9.73;6.20;;;;;;;;;;5071652;28;20346;-71
2021/09/07 13:37:00;;;;;;;11.70;6.45;;;;;;;;;;5072776;28;20267;-71
2021/09/07 13:39:25;;;;;;;11.35;7.78;;;;;;;;;;5072439;28;20024;-70
2021/09/07 13:41:50;;;;;;;14.97;8.53;;;;;;;;;;5073313;28;20473;-70
2021/09/07 13:44:15;;;;;;;14.98;9.02;;;;;;;;;;5069799;28;20070;-71
2021/09/07 13:46:41;;;;;;;10.70;7.60;;;;;;;;;;5073231;28;20025;-71
2021/09/07 13:49:06;;;;;;;17.03;7.53;;;;;;;;;;5071857;28;20767;-71
2021/09/07 13:51:31;;;;;;;16.10;7.07;;;;;;;;;;5070729;28;20778;-71
2021/09/07 13:53:56;;;;;;;9.03;6.43;;;;;;;;;;5072618;28;20375;-71
2021/09/07 13:56:21;;;;;;;11.70;6.83;;;;;;;;;;5072803;28;20013;-71
2021/09/07 13:58:46;;;;;;;10.07;6.97;;;;;;;;;;5072700;28;20091;-71
2021/09/07 14:01:12;;;;;;;12.03;6.63;;;;;;;;;;5072756;28;20020;-71
2021/09/07 14:03:37;;;;;;;13.23;7.13;;;;;;;;;;5072781;28;20408;-71
2021/09/07 14:06:02;;;;;;;10.93;6.23;;;;;;;;;;5071952;28;20490;-71
2021/09/07 14:08:28;;;;;;;11.00;6.20;;;;;;;;;;5072746;28;20275;-71
2021/09/07 14:10:58;;;;;;;14.07;6.65;;;;;;;;;;5072285;28;20286;-70
2021/09/07 14:13:23;;;;;;;;;;;;;;;;;;5072138;28;20009;-71
2021/09/07 14:15:48;;;;;;;10.23;6.73;;;;;;;;;;5072384;28;19908;-70